createdAt,value
2023-01-12T00:02:17.797Z,5.28
2023-01-12T00:05:03.835Z,5.29
2023-01-12T00:07:49.726Z,5.29
2023-01-12T00:10:35.455Z,5.32
2023-01-12T00:13:21.021Z,5.31
2023-01-12T00:16:26.260Z,5.30
2023-01-12T00:19:17.080Z,5.29
2023-01-12T00:22:07.168Z,5.29
2023-01-12T00:24:55.104Z,5.32
2023-01-12T00:27:40.638Z,5.34
2023-01-12T00:30:26.398Z,5.36
2023-01-12T00:33:12.031Z,5.38
2023-01-12T00:35:57.593Z,5.35
2023-01-12T00:38:43.489Z,5.39
2023-01-12T00:41:47.697Z,5.38
2023-01-12T00:44:53.184Z,5.39
2023-01-12T00:47:39.252Z,5.40
2023-01-12T00:50:25.056Z,5.39
2023-01-12T00:53:10.763Z,5.39
2023-01-12T00:56:01.578Z,5.39
2023-01-12T00:58:47.371Z,5.41
2023-01-12T01:01:34.645Z,5.41
2023-01-12T01:04:20.530Z,5.37
2023-01-12T01:07:06.472Z,5.42
2023-01-12T01:09:52.112Z,5.37
2023-01-12T01:12:37.867Z,5.39
2023-01-12T01:15:23.476Z,5.39
2023-01-12T01:18:09.016Z,5.36
2023-01-12T01:20:55.119Z,5.32
2023-01-12T01:23:41.797Z,5.32
2023-01-12T01:26:27.776Z,5.31
2023-01-12T01:29:13.967Z,5.32
2023-01-12T01:31:59.578Z,5.32
2023-01-12T01:34:46.538Z,5.35
2023-01-12T01:37:32.419Z,5.35
2023-01-12T01:40:18.117Z,5.35
2023-01-12T01:43:04.119Z,5.36
2023-01-12T01:46:05.675Z,5.35
2023-01-12T01:48:51.619Z,5.37
2023-01-12T01:51:37.359Z,5.38
2023-01-12T01:54:23.659Z,5.37
2023-01-12T01:57:11.026Z,5.30
2023-01-12T01:59:59.940Z,5.23
2023-01-12T02:02:46.745Z,5.19
2023-01-12T02:05:32.993Z,5.13
2023-01-12T02:08:39.576Z,5.03
2023-01-12T02:11:44.236Z,5.00
2023-01-12T02:14:49.484Z,4.91
2023-01-12T02:17:55.432Z,4.87
2023-01-12T02:20:56.481Z,4.81
2023-01-12T02:23:48.601Z,4.79
2023-01-12T02:27:03.830Z,4.73
2023-01-12T02:30:21.517Z,4.73
2023-01-12T02:33:16.930Z,4.71
2023-01-12T02:36:11.840Z,4.72
2023-01-12T02:39:07.579Z,4.72
2023-01-12T02:42:42.761Z,4.66
2023-01-12T02:45:57.395Z,4.66
2023-01-12T02:48:55.834Z,4.65
2023-01-12T02:51:48.211Z,4.67
2023-01-12T02:54:34.671Z,4.67
2023-01-12T02:57:22.113Z,4.67
2023-01-12T03:00:09.147Z,4.69
2023-01-12T03:02:54.878Z,4.66
2023-01-12T03:05:45.207Z,4.62
2023-01-12T03:08:32.373Z,4.56
2023-01-12T03:11:20.679Z,4.58
2023-01-12T03:14:07.076Z,4.59
2023-01-12T03:16:54.714Z,4.59
2023-01-12T03:19:42.103Z,4.57
2023-01-12T03:22:28.630Z,4.58
2023-01-12T03:25:17.686Z,4.54
2023-01-12T03:28:05.198Z,4.55
2023-01-12T03:31:02.721Z,4.50
2023-01-12T03:33:48.363Z,4.48
2023-01-12T03:36:55.805Z,4.50
2023-01-12T03:40:17.855Z,4.49
2023-01-12T03:43:06.307Z,4.49
2023-01-12T03:45:57.101Z,4.49
2023-01-12T03:48:53.375Z,4.52
2023-01-12T03:51:42.588Z,4.57
2023-01-12T03:54:29.270Z,4.60
2023-01-12T03:57:15.460Z,4.64
2023-01-12T04:00:03.195Z,4.68
2023-01-12T04:03:13.151Z,4.71
2023-01-12T04:05:59.127Z,4.74
2023-01-12T04:08:44.821Z,4.80
2023-01-12T04:11:49.258Z,4.81
2023-01-12T04:14:35.306Z,4.83
2023-01-12T04:17:25.096Z,4.86
2023-01-12T04:20:11.523Z,4.90
2023-01-12T04:22:57.487Z,4.94
2023-01-12T04:25:43.240Z,4.97
2023-01-12T04:28:29.021Z,5.03
2023-01-12T04:31:16.161Z,5.06
2023-01-12T04:34:02.138Z,5.06
2023-01-12T04:36:48.146Z,5.03
2023-01-12T04:39:33.807Z,4.94
2023-01-12T04:42:38.353Z,4.95
2023-01-12T04:45:24.268Z,4.95
2023-01-12T04:48:12.071Z,4.95
2023-01-12T04:50:59.645Z,4.90
2023-01-12T04:53:48.198Z,4.99
2023-01-12T04:56:34.053Z,5.02
2023-01-12T04:59:19.962Z,5.03
2023-01-12T05:02:05.910Z,5.09
2023-01-12T05:04:51.581Z,5.13
2023-01-12T05:07:37.387Z,5.17
2023-01-12T05:10:23.053Z,5.16
2023-01-12T05:13:08.695Z,5.18
2023-01-12T05:15:54.475Z,5.23
2023-01-12T05:18:40.494Z,5.22
2023-01-12T05:21:26.037Z,5.24
2023-01-12T05:24:11.895Z,5.23
2023-01-12T05:26:57.629Z,5.19
2023-01-12T05:29:43.271Z,5.18
2023-01-12T05:32:29.087Z,5.15
2023-01-12T05:35:14.686Z,5.16
2023-01-12T05:38:00.296Z,5.18
2023-01-12T05:40:46.047Z,5.19
2023-01-12T05:43:50.297Z,5.20
2023-01-12T05:46:40.246Z,5.21
2023-01-12T05:49:26.102Z,5.21
2023-01-12T05:52:11.756Z,5.18
2023-01-12T05:54:57.371Z,5.24
2023-01-12T05:57:43.240Z,5.25
2023-01-12T06:00:29.327Z,5.23
2023-01-12T06:03:15.415Z,5.29
2023-01-12T06:06:01.588Z,5.31
2023-01-12T06:08:47.537Z,5.33
2023-01-12T06:11:52.069Z,5.37
2023-01-12T06:14:38.293Z,5.41
2023-01-12T06:17:23.876Z,5.44
2023-01-12T06:20:10.636Z,5.46
2023-01-12T06:23:00.554Z,5.48
2023-01-12T06:25:46.573Z,5.49
2023-01-12T06:28:32.303Z,5.52
2023-01-12T06:31:17.885Z,5.48
2023-01-12T06:34:03.501Z,5.53
2023-01-12T06:36:49.492Z,5.53
2023-01-12T06:39:35.269Z,5.53
2023-01-12T06:42:30.111Z,5.52
2023-01-12T06:45:15.794Z,5.49
2023-01-12T06:48:01.549Z,5.49
2023-01-12T06:50:47.287Z,5.49
2023-01-12T06:53:33.029Z,5.49
2023-01-12T06:56:18.751Z,5.50
2023-01-12T06:59:05.692Z,5.49
2023-01-12T07:01:51.970Z,5.44
2023-01-12T07:04:38.346Z,5.47
2023-01-12T07:07:24.113Z,5.45
2023-01-12T07:10:11.324Z,5.46
2023-01-12T07:13:00.300Z,5.45
2023-01-12T07:15:46.188Z,5.48
2023-01-12T07:18:31.979Z,5.49
2023-01-12T07:21:19.615Z,5.53
2023-01-12T07:24:05.454Z,5.58
2023-01-12T07:26:52.421Z,5.64
2023-01-12T07:29:37.986Z,5.66
2023-01-12T07:32:26.587Z,5.71
2023-01-12T07:35:12.364Z,5.74
2023-01-12T07:37:58.341Z,5.75
2023-01-12T07:40:44.095Z,5.73
2023-01-12T07:43:30.563Z,5.75
2023-01-12T07:46:16.636Z,5.75
2023-01-12T07:49:02.395Z,5.76
2023-01-12T07:51:48.111Z,5.77
2023-01-12T07:54:36.099Z,5.75
2023-01-12T07:57:21.960Z,5.75
2023-01-12T08:00:09.485Z,5.75
2023-01-12T08:03:11.623Z,5.72
2023-01-12T08:05:58.027Z,5.71
2023-01-12T08:08:44.267Z,5.80
2023-01-12T08:11:31.409Z,5.83
2023-01-12T08:14:28.593Z,5.81
2023-01-12T08:17:17.925Z,5.85
2023-01-12T08:20:17.882Z,5.89
2023-01-12T08:23:10.915Z,5.89
2023-01-12T08:26:00.963Z,5.92
2023-01-12T08:29:06.736Z,5.91
2023-01-12T08:31:52.517Z,5.97
2023-01-12T08:34:41.998Z,6.02
2023-01-12T08:37:29.185Z,6.05
2023-01-12T08:40:15.410Z,6.15
2023-01-12T08:43:01.449Z,6.22
2023-01-12T08:45:47.178Z,6.30
2023-01-12T08:48:32.983Z,6.39
2023-01-12T08:51:18.601Z,6.48
2023-01-12T08:54:04.222Z,6.60
2023-01-12T08:56:50.250Z,6.67
2023-01-12T08:59:37.092Z,6.76
2023-01-12T09:02:25.265Z,6.83
2023-01-12T09:05:11.273Z,6.92
2023-01-12T09:07:56.978Z,6.99
2023-01-12T09:10:42.735Z,7.07
2023-01-12T09:13:28.472Z,7.12
2023-01-12T09:16:15.557Z,7.18
2023-01-12T09:19:01.734Z,7.26
2023-01-12T09:21:47.563Z,7.28
2023-01-12T09:24:34.208Z,7.29
2023-01-12T09:27:20.166Z,7.34
2023-01-12T09:30:07.460Z,7.38
2023-01-12T09:32:55.322Z,7.44
2023-01-12T09:35:44.466Z,7.36
2023-01-12T09:38:30.272Z,7.39
2023-01-12T09:41:49.111Z,7.36
2023-01-12T09:44:59.783Z,7.40
2023-01-12T09:47:56.290Z,7.47
2023-01-12T09:51:04.661Z,7.47
2023-01-12T09:53:50.625Z,7.50
2023-01-12T09:56:51.863Z,7.43
2023-01-12T09:59:48.773Z,7.39
2023-01-12T10:02:36.368Z,7.37
2023-01-12T10:05:46.275Z,7.28
2023-01-12T10:08:51.345Z,7.23
2023-01-12T10:12:01.059Z,7.19
2023-01-12T10:15:04.975Z,7.18
2023-01-12T10:18:09.914Z,7.14
2023-01-12T10:20:55.881Z,7.17
2023-01-12T10:23:42.611Z,7.15
2023-01-12T10:26:37.163Z,7.12
2023-01-12T10:29:24.360Z,7.14
2023-01-12T10:32:12.967Z,7.17
2023-01-12T10:34:59.974Z,7.23
2023-01-12T10:37:52.615Z,7.28
2023-01-12T10:40:38.945Z,7.39
2023-01-12T10:43:31.934Z,7.47
2023-01-12T10:46:21.418Z,7.55
2023-01-12T10:49:23.923Z,7.65
2023-01-12T10:52:11.257Z,7.75
2023-01-12T10:54:58.978Z,7.85
2023-01-12T10:57:47.748Z,7.91
2023-01-12T11:00:34.313Z,7.97
2023-01-12T11:03:38.061Z,8.00
2023-01-12T11:06:31.008Z,8.03
2023-01-12T11:09:21.765Z,8.06
2023-01-12T11:12:34.919Z,8.08
2023-01-12T11:15:21.063Z,8.10
2023-01-12T11:18:52.646Z,8.13
2023-01-12T11:21:42.243Z,8.11
2023-01-12T11:24:43.328Z,8.10
2023-01-12T11:27:36.235Z,8.07
2023-01-12T11:30:31.367Z,8.08
2023-01-12T11:33:22.818Z,8.08
2023-01-12T11:36:20.799Z,8.04
2023-01-12T11:39:13.154Z,8.01
2023-01-12T11:42:19.550Z,8.00
2023-01-12T11:45:14.190Z,7.95
2023-01-12T11:48:05.649Z,7.90
2023-01-12T11:50:53.634Z,7.84
2023-01-12T11:53:41.565Z,7.81
2023-01-12T11:56:52.045Z,7.75
2023-01-12T11:59:40.245Z,7.76
2023-01-12T12:02:55.906Z,7.75
2023-01-12T12:05:58.783Z,7.76
2023-01-12T12:09:22.750Z,7.77
2023-01-12T12:12:46.481Z,7.77
2023-01-12T12:15:34.852Z,7.78
2023-01-12T12:18:50.188Z,7.76
2023-01-12T12:21:59.283Z,7.77
2023-01-12T12:25:05.800Z,7.78
2023-01-12T12:28:10.336Z,7.77
2023-01-12T12:31:13.860Z,7.78
2023-01-12T12:34:11.753Z,7.80
2023-01-12T12:37:06.944Z,7.78
2023-01-12T12:39:57.729Z,7.76
2023-01-12T12:43:37.569Z,7.82
2023-01-12T12:46:36.048Z,7.83
2023-01-12T12:49:26.604Z,7.86
2023-01-12T12:52:12.926Z,7.83
2023-01-12T12:54:59.427Z,7.89
2023-01-12T12:58:03.618Z,7.91
2023-01-12T13:00:51.000Z,7.92
2023-01-12T13:03:39.855Z,7.96
2023-01-12T13:06:25.634Z,8.01
2023-01-12T13:09:17.288Z,8.06
2023-01-12T13:12:03.029Z,8.09
2023-01-12T13:15:32.583Z,8.10
2023-01-12T13:18:42.575Z,8.06
2023-01-12T13:21:31.144Z,8.00
2023-01-12T13:24:23.764Z,7.92
2023-01-12T13:27:47.290Z,7.84
2023-01-12T13:30:34.324Z,7.80
2023-01-12T13:33:29.074Z,7.77
2023-01-12T13:36:30.889Z,7.73
2023-01-12T13:39:17.035Z,7.70
2023-01-12T13:42:22.485Z,7.72
2023-01-12T13:45:17.281Z,7.71
2023-01-12T13:48:05.824Z,7.68
2023-01-12T13:50:55.667Z,7.70
2023-01-12T13:53:41.785Z,7.73
2023-01-12T13:56:28.002Z,7.70
2023-01-12T13:59:18.747Z,7.71
2023-01-12T14:02:04.849Z,7.72
2023-01-12T14:04:59.690Z,7.70
2023-01-12T14:08:00.269Z,7.66
2023-01-12T14:10:58.273Z,7.63
2023-01-12T14:13:53.162Z,7.63
2023-01-12T14:17:04.955Z,7.61
2023-01-12T14:19:51.771Z,7.60
2023-01-12T14:22:37.626Z,7.60
2023-01-12T14:25:25.961Z,7.57
2023-01-12T14:28:20.485Z,7.56
2023-01-12T14:31:08.606Z,7.52
2023-01-12T14:33:57.340Z,7.48
2023-01-12T14:36:44.803Z,7.43
2023-01-12T14:39:36.758Z,7.37
2023-01-12T14:42:42.351Z,7.34
2023-01-12T14:45:47.580Z,7.29
2023-01-12T14:48:34.602Z,7.25
2023-01-12T14:51:40.221Z,7.21
2023-01-12T14:54:28.536Z,7.17
2023-01-12T14:57:23.580Z,7.14
2023-01-12T15:00:21.517Z,7.09
2023-01-12T15:03:26.328Z,7.06
2023-01-12T15:06:15.805Z,7.05
2023-01-12T15:09:02.042Z,7.06
2023-01-12T15:11:47.754Z,7.05
2023-01-12T15:14:33.600Z,7.09
2023-01-12T15:17:38.069Z,7.08
2023-01-12T15:20:43.564Z,7.04
2023-01-12T15:23:53.118Z,7.09
2023-01-12T15:27:29.368Z,7.03
2023-01-12T15:35:26.793Z,6.93
2023-01-12T15:43:18.789Z,6.88
2023-01-12T15:47:16.521Z,6.84
2023-01-12T15:50:02.685Z,6.82
2023-01-12T15:52:49.241Z,6.82
2023-01-12T15:55:36.184Z,6.86
2023-01-12T15:58:22.458Z,6.87
2023-01-12T16:01:10.716Z,6.88
2023-01-12T16:04:25.020Z,6.89
2023-01-12T16:07:11.991Z,6.95
2023-01-12T16:11:13.554Z,6.93
2023-01-12T16:14:08.558Z,6.95
2023-01-12T16:16:54.728Z,6.96
2023-01-12T16:19:43.903Z,6.98
2023-01-12T16:22:30.671Z,7.01
2023-01-12T16:25:16.810Z,7.03
2023-01-12T16:28:02.939Z,7.01
2023-01-12T16:30:48.735Z,7.06
2023-01-12T16:33:34.462Z,7.08
2023-01-12T16:36:20.042Z,7.07
2023-01-12T16:39:06.556Z,7.05
2023-01-12T16:41:54.741Z,7.02
2023-01-12T16:44:41.099Z,6.99
2023-01-12T16:47:27.175Z,6.97
2023-01-12T16:50:13.206Z,6.96
2023-01-12T16:52:58.688Z,6.95
2023-01-12T16:55:44.543Z,6.94
2023-01-12T16:58:30.175Z,6.89
2023-01-12T17:01:18.801Z,6.97
2023-01-12T17:04:04.876Z,6.95
2023-01-12T17:06:51.432Z,7.05
2023-01-12T17:09:39.308Z,7.08
2023-01-12T17:12:25.265Z,7.07
2023-01-12T17:15:11.417Z,7.12
2023-01-12T17:17:57.719Z,7.15
2023-01-12T17:20:44.187Z,7.16
2023-01-12T17:23:30.295Z,7.18
2023-01-12T17:26:18.243Z,7.21
2023-01-12T17:29:04.418Z,7.27
2023-01-12T17:31:50.222Z,7.30
2023-01-12T17:34:39.021Z,7.32
2023-01-12T17:37:25.098Z,7.36
2023-01-12T17:40:11.683Z,7.35
2023-01-12T17:43:03.456Z,7.36
2023-01-12T17:45:50.764Z,7.37
2023-01-12T17:48:36.799Z,7.29
2023-01-12T17:51:22.450Z,7.27
2023-01-12T17:54:10.916Z,7.29
2023-01-12T17:56:57.155Z,7.26
2023-01-12T17:59:43.411Z,7.24
2023-01-12T18:02:29.439Z,7.22
2023-01-12T18:05:15.340Z,7.23
2023-01-12T18:08:01.136Z,7.22
2023-01-12T18:10:47.111Z,7.18
2023-01-12T18:13:34.585Z,7.16
2023-01-12T18:16:21.087Z,7.10
2023-01-12T18:19:08.966Z,7.02
2023-01-12T18:21:55.078Z,6.97
2023-01-12T18:24:41.153Z,6.93
2023-01-12T18:27:27.232Z,6.94
2023-01-12T18:30:13.820Z,6.91
2023-01-12T18:33:00.091Z,6.94
2023-01-12T18:35:46.329Z,6.88
2023-01-12T18:38:32.210Z,6.90
2023-01-12T18:41:38.035Z,6.89
2023-01-12T18:44:24.907Z,6.89
2023-01-12T18:47:34.818Z,6.89
2023-01-12T18:50:40.296Z,6.87
2023-01-12T18:53:31.873Z,6.88
2023-01-12T18:56:17.948Z,6.90
2023-01-12T18:59:04.492Z,6.91
2023-01-12T19:01:50.845Z,6.90
2023-01-12T19:04:57.911Z,6.94
2023-01-12T19:07:52.945Z,6.93
2023-01-12T19:10:39.042Z,6.96
2023-01-12T19:13:43.323Z,6.97
2023-01-12T19:16:50.051Z,6.91
2023-01-12T19:19:36.255Z,6.97
2023-01-12T19:22:40.979Z,6.98
2023-01-12T19:25:47.146Z,6.97
2023-01-12T19:28:35.503Z,6.96
2023-01-12T19:31:21.515Z,6.93
2023-01-12T19:34:07.130Z,6.90
2023-01-12T19:36:53.085Z,6.84
2023-01-12T19:40:14.111Z,6.79
2023-01-12T19:43:33.683Z,6.69
2023-01-12T19:46:19.623Z,6.70
2023-01-12T19:49:05.485Z,6.71
2023-01-12T19:51:51.250Z,6.72
2023-01-12T19:54:37.183Z,6.73
2023-01-12T19:57:22.879Z,6.72
2023-01-12T20:00:14.336Z,6.69
2023-01-12T20:03:00.519Z,6.67
2023-01-12T20:05:48.023Z,6.68
2023-01-12T20:08:34.235Z,6.68
2023-01-12T20:11:20.097Z,6.67
2023-01-12T20:14:06.149Z,6.66
2023-01-12T20:16:51.899Z,6.62
2023-01-12T20:19:37.814Z,6.64
2023-01-12T20:22:23.655Z,6.64
2023-01-12T20:25:10.374Z,6.65
2023-01-12T20:27:56.149Z,6.61
2023-01-12T20:30:43.303Z,6.65
2023-01-12T20:33:29.807Z,6.63
2023-01-12T20:36:17.336Z,6.65
2023-01-12T20:39:03.665Z,6.65
2023-01-12T20:41:49.653Z,6.64
2023-01-12T20:44:35.642Z,6.64
2023-01-12T20:47:21.795Z,6.61
2023-01-12T20:50:11.981Z,6.63
2023-01-12T20:52:59.778Z,6.65
2023-01-12T20:55:48.630Z,6.66
2023-01-12T20:58:34.500Z,6.67
2023-01-12T21:01:20.895Z,6.61
2023-01-12T21:04:06.790Z,6.71
2023-01-12T21:06:52.711Z,6.74
2023-01-12T21:09:38.841Z,6.76
2023-01-12T21:12:27.271Z,6.76
2023-01-12T21:15:13.623Z,6.76
2023-01-12T21:17:59.673Z,6.74
2023-01-12T21:20:45.324Z,6.72
2023-01-12T21:23:31.184Z,6.68
2023-01-12T21:26:17.245Z,6.67
2023-01-12T21:29:03.370Z,6.67
2023-01-12T21:31:49.480Z,6.64
2023-01-12T21:34:35.265Z,6.63
2023-01-12T21:37:21.428Z,6.65
2023-01-12T21:40:08.518Z,6.64
2023-01-12T21:43:11.965Z,6.63
2023-01-12T21:46:04.385Z,6.63
2023-01-12T21:48:50.189Z,6.65
2023-01-12T21:51:35.952Z,6.64
2023-01-12T21:54:21.743Z,6.68
2023-01-12T21:57:07.645Z,6.66
2023-01-12T21:59:53.999Z,6.68
2023-01-12T22:02:40.232Z,6.69
2023-01-12T22:05:26.112Z,6.69
2023-01-12T22:08:12.039Z,6.69
2023-01-12T22:11:04.807Z,6.70
2023-01-12T22:13:50.743Z,6.67
2023-01-12T22:16:36.546Z,6.70
2023-01-12T22:19:22.181Z,6.67
2023-01-12T22:22:07.947Z,6.69
2023-01-12T22:24:53.586Z,6.67
2023-01-12T22:27:41.670Z,6.69
2023-01-12T22:30:28.002Z,6.69
2023-01-12T22:33:13.748Z,6.70
2023-01-12T22:36:02.029Z,6.69
2023-01-12T22:38:48.102Z,6.71
2023-01-12T22:41:34.374Z,6.71
2023-01-12T22:44:20.176Z,6.64
2023-01-12T22:47:05.793Z,6.66
2023-01-12T22:49:51.607Z,6.66
2023-01-12T22:52:39.250Z,6.68
2023-01-12T22:55:25.613Z,6.70
2023-01-12T22:58:11.665Z,6.69
2023-01-12T23:01:08.892Z,6.70
2023-01-12T23:03:58.537Z,6.71
2023-01-12T23:06:44.231Z,6.74
2023-01-12T23:09:29.949Z,6.72
2023-01-12T23:12:15.711Z,6.74
2023-01-12T23:15:01.205Z,6.76
2023-01-12T23:17:47.001Z,6.76
2023-01-12T23:20:35.719Z,6.76
2023-01-12T23:23:21.325Z,6.77
2023-01-12T23:26:09.016Z,6.74
2023-01-12T23:28:56.876Z,6.75
2023-01-12T23:31:42.382Z,6.72
2023-01-12T23:34:28.965Z,6.66
2023-01-12T23:37:15.000Z,6.57
2023-01-12T23:40:00.772Z,6.49
2023-01-12T23:42:46.362Z,6.44
2023-01-12T23:45:33.396Z,6.37
2023-01-12T23:48:19.121Z,6.33
2023-01-12T23:51:05.222Z,6.31
2023-01-12T23:53:59.804Z,6.28
2023-01-12T23:56:46.181Z,6.27
2023-01-12T23:59:31.869Z,6.26
